createdAt,value
2023-01-07T00:01:26.757Z,0.90
2023-01-07T00:03:55.375Z,1.40
2023-01-07T00:06:25.853Z,1.05
2023-01-07T00:08:55.148Z,0.90
2023-01-07T00:11:28.179Z,0.70
2023-01-07T00:13:56.872Z,0.85
2023-01-07T00:16:26.913Z,1.20
2023-01-07T00:18:55.613Z,0.70
2023-01-07T00:21:24.421Z,0.60
2023-01-07T00:23:56.775Z,0.90
2023-01-07T00:26:26.116Z,0.93
2023-01-07T00:28:54.447Z,0.98
2023-01-07T00:31:24.353Z,0.68
2023-01-07T00:33:55.491Z,1.35
2023-01-07T00:36:28.562Z,0.80
2023-01-07T00:38:57.808Z,0.70
2023-01-07T00:41:25.261Z,0.98
2023-01-07T00:43:53.168Z,0.60
2023-01-07T00:46:21.296Z,0.80
2023-01-07T00:48:48.711Z,0.70
2023-01-07T00:51:17.831Z,1.13
2023-01-07T00:53:45.666Z,0.73
2023-01-07T00:56:20.471Z,0.63
2023-01-07T00:58:47.724Z,0.52
2023-01-07T01:01:16.024Z,0.70
2023-01-07T01:03:43.414Z,0.70
2023-01-07T01:06:15.604Z,0.63
2023-01-07T01:08:44.198Z,0.70
2023-01-07T01:11:13.553Z,0.70
2023-01-07T01:13:42.188Z,0.90
2023-01-07T01:16:17.991Z,0.65
2023-01-07T01:18:46.197Z,0.60
2023-01-07T01:21:15.545Z,0.60
2023-01-07T01:23:43.311Z,0.90
2023-01-07T01:26:13.584Z,1.10
2023-01-07T01:28:41.488Z,0.80
2023-01-07T01:31:11.215Z,1.00
2023-01-07T01:33:46.254Z,0.70
2023-01-07T01:36:13.670Z,0.90
2023-01-07T01:38:42.944Z,0.77
2023-01-07T01:41:13.915Z,0.75
2023-01-07T01:43:42.881Z,0.73
2023-01-07T01:46:36.459Z,0.80
2023-01-07T01:49:16.921Z,1.20
2023-01-07T01:51:50.208Z,1.27
2023-01-07T01:54:20.005Z,1.50
2023-01-07T01:56:54.804Z,2.42
2023-01-07T01:59:25.751Z,2.40
2023-01-07T02:01:55.006Z,2.20
2023-01-07T02:04:24.574Z,1.80
2023-01-07T02:07:05.476Z,2.15
2023-01-07T02:09:34.322Z,2.28
2023-01-07T02:12:16.634Z,2.90
2023-01-07T02:15:11.076Z,2.40
2023-01-07T02:18:15.121Z,1.70
2023-01-07T02:21:11.813Z,1.58
2023-01-07T02:24:08.370Z,1.40
2023-01-07T02:26:46.205Z,1.10
2023-01-07T02:29:19.575Z,1.30
2023-01-07T02:32:00.803Z,1.33
2023-01-07T02:34:35.728Z,1.10
2023-01-07T02:37:09.977Z,1.05
2023-01-07T02:39:54.964Z,1.23
2023-01-07T02:42:45.985Z,1.10
2023-01-07T02:45:27.077Z,1.10
2023-01-07T02:48:01.398Z,0.95
2023-01-07T02:50:28.600Z,0.82
2023-01-07T02:52:55.830Z,1.23
2023-01-07T02:55:44.836Z,1.10
2023-01-07T02:58:37.297Z,1.02
2023-01-07T03:01:20.252Z,1.40
2023-01-07T03:04:00.947Z,1.23
2023-01-07T03:07:05.597Z,1.17
2023-01-07T03:09:41.498Z,1.08
2023-01-07T03:12:20.712Z,0.95
2023-01-07T03:14:51.756Z,1.00
2023-01-07T03:17:22.818Z,0.88
2023-01-07T03:19:57.224Z,0.95
2023-01-07T03:22:27.731Z,0.90
2023-01-07T03:24:57.103Z,0.85
2023-01-07T03:27:27.504Z,0.98
2023-01-07T03:29:56.147Z,0.85
2023-01-07T03:32:32.006Z,1.10
2023-01-07T03:34:59.533Z,0.90
2023-01-07T03:37:29.036Z,0.77
2023-01-07T03:39:59.846Z,0.85
2023-01-07T03:42:40.288Z,0.70
2023-01-07T03:45:24.185Z,0.75
2023-01-07T03:47:55.552Z,0.90
2023-01-07T03:50:24.682Z,0.95
2023-01-07T03:52:53.146Z,0.95
2023-01-07T03:55:22.064Z,1.02
2023-01-07T03:57:51.389Z,1.48
2023-01-07T04:00:18.844Z,1.17
2023-01-07T04:02:54.201Z,1.17
2023-01-07T04:05:25.708Z,0.93
2023-01-07T04:07:53.476Z,1.42
2023-01-07T04:10:21.669Z,1.00
2023-01-07T04:12:48.984Z,1.20
2023-01-07T04:15:16.493Z,1.40
2023-01-07T04:17:43.773Z,1.00
2023-01-07T04:20:11.319Z,0.82
2023-01-07T04:22:38.850Z,1.95
2023-01-07T04:25:08.103Z,1.05
2023-01-07T04:27:35.706Z,1.05
2023-01-07T04:30:04.011Z,1.00
2023-01-07T04:32:34.864Z,0.90
2023-01-07T04:35:02.590Z,0.90
2023-01-07T04:37:31.241Z,1.40
2023-01-07T04:39:58.803Z,1.30
2023-01-07T04:42:26.513Z,1.08
2023-01-07T04:44:54.498Z,0.93
2023-01-07T04:47:22.732Z,1.05
2023-01-07T04:49:50.730Z,0.98
2023-01-07T04:52:18.036Z,0.70
2023-01-07T04:54:45.287Z,0.95
2023-01-07T04:57:12.765Z,0.90
2023-01-07T04:59:39.997Z,1.10
2023-01-07T05:02:07.394Z,1.15
2023-01-07T05:04:35.149Z,1.25
2023-01-07T05:07:02.807Z,1.08
2023-01-07T05:09:30.301Z,1.10
2023-01-07T05:11:57.961Z,1.17
2023-01-07T05:14:26.069Z,1.15
2023-01-07T05:16:54.857Z,1.00
2023-01-07T05:19:24.153Z,1.25
2023-01-07T05:21:52.295Z,1.00
2023-01-07T05:24:19.795Z,1.00
2023-01-07T05:26:47.155Z,1.05
2023-01-07T05:29:16.812Z,0.95
2023-01-07T05:31:45.048Z,0.95
2023-01-07T05:34:12.911Z,1.23
2023-01-07T05:36:40.527Z,0.95
2023-01-07T05:39:07.823Z,1.77
2023-01-07T05:41:35.199Z,1.00
2023-01-07T05:44:02.692Z,0.82
2023-01-07T05:46:29.975Z,1.58
2023-01-07T05:48:57.188Z,0.95
2023-01-07T05:51:24.449Z,0.88
2023-01-07T05:53:51.674Z,0.85
2023-01-07T05:56:18.952Z,1.05
2023-01-07T05:58:46.214Z,0.82
2023-01-07T06:01:13.574Z,0.88
2023-01-07T06:03:41.024Z,0.65
2023-01-07T06:06:08.299Z,1.15
2023-01-07T06:08:36.547Z,0.90
2023-01-07T06:11:05.135Z,0.85
2023-01-07T06:13:32.935Z,0.90
2023-01-07T06:16:06.123Z,0.90
2023-01-07T06:18:33.914Z,1.10
2023-01-07T06:21:01.160Z,0.60
2023-01-07T06:23:28.391Z,1.00
2023-01-07T06:25:55.588Z,1.10
2023-01-07T06:28:23.190Z,0.70
2023-01-07T06:30:50.437Z,0.80
2023-01-07T06:33:17.823Z,1.00
2023-01-07T06:35:45.866Z,0.82
2023-01-07T06:38:13.417Z,0.90
2023-01-07T06:40:40.783Z,1.05
2023-01-07T06:43:08.075Z,0.82
2023-01-07T06:45:35.285Z,1.15
2023-01-07T06:48:03.200Z,0.75
2023-01-07T06:50:30.396Z,0.77
2023-01-07T06:52:57.712Z,0.73
2023-01-07T06:55:24.957Z,0.93
2023-01-07T06:57:52.176Z,1.00
2023-01-07T07:00:19.529Z,0.93
2023-01-07T07:02:46.877Z,1.15
2023-01-07T07:05:14.257Z,0.90
2023-01-07T07:07:41.650Z,0.80
2023-01-07T07:10:09.118Z,0.90
2023-01-07T07:12:36.925Z,0.60
2023-01-07T07:15:08.787Z,0.80
2023-01-07T07:17:36.077Z,1.00
2023-01-07T07:20:04.159Z,1.15
2023-01-07T07:22:31.305Z,0.90
2023-01-07T07:24:58.513Z,1.00
2023-01-07T07:27:25.829Z,0.93
2023-01-07T07:29:53.076Z,1.00
2023-01-07T07:32:20.379Z,1.23
2023-01-07T07:34:47.709Z,1.00
2023-01-07T07:37:14.971Z,1.00
2023-01-07T07:39:42.216Z,0.88
2023-01-07T07:42:09.456Z,1.17
2023-01-07T07:44:37.350Z,0.75
2023-01-07T07:47:04.795Z,1.02
2023-01-07T07:49:32.163Z,1.02
2023-01-07T07:51:59.474Z,0.85
2023-01-07T07:54:28.123Z,0.80
2023-01-07T07:56:56.094Z,0.80
2023-01-07T07:59:23.312Z,0.90
2023-01-07T08:01:50.829Z,0.80
2023-01-07T08:04:18.283Z,0.90
2023-01-07T08:06:45.615Z,0.77
2023-01-07T08:09:12.912Z,1.15
2023-01-07T08:11:40.088Z,1.10
2023-01-07T08:14:07.243Z,0.80
2023-01-07T08:16:34.586Z,0.80
2023-01-07T08:19:01.871Z,0.90
2023-01-07T08:21:29.085Z,0.88
2023-01-07T08:23:56.328Z,0.88
2023-01-07T08:26:24.256Z,1.13
2023-01-07T08:28:51.745Z,0.95
2023-01-07T08:31:19.089Z,0.80
2023-01-07T08:33:46.371Z,0.70
2023-01-07T08:36:28.877Z,0.80
2023-01-07T08:38:56.216Z,1.02
2023-01-07T08:41:24.520Z,1.13
2023-01-07T08:43:53.127Z,1.25
2023-01-07T08:46:20.525Z,1.30
2023-01-07T08:48:48.026Z,0.90
2023-01-07T08:51:15.497Z,0.90
2023-01-07T08:53:42.746Z,0.82
2023-01-07T08:56:10.052Z,1.45
2023-01-07T08:58:38.376Z,1.30
2023-01-07T09:01:07.081Z,1.00
2023-01-07T09:03:35.179Z,1.30
2023-01-07T09:06:02.716Z,0.90
2023-01-07T09:08:30.134Z,1.00
2023-01-07T09:10:57.506Z,1.30
2023-01-07T09:13:24.822Z,1.02
2023-01-07T09:15:53.200Z,1.00
2023-01-07T09:18:21.534Z,1.40
2023-01-07T09:20:48.799Z,1.67
2023-01-07T09:23:16.190Z,1.67
2023-01-07T09:25:43.448Z,1.30
2023-01-07T09:28:10.695Z,1.33
2023-01-07T09:30:37.934Z,3.47
2023-01-07T09:33:05.561Z,1.58
2023-01-07T09:35:32.868Z,2.40
2023-01-07T09:38:00.281Z,1.90
2023-01-07T09:40:32.216Z,1.85
2023-01-07T09:43:16.616Z,2.05
2023-01-07T09:45:52.381Z,1.90
2023-01-07T09:48:32.130Z,1.70
2023-01-07T09:51:13.853Z,1.73
2023-01-07T09:53:45.509Z,2.28
2023-01-07T09:56:22.649Z,1.88
2023-01-07T09:58:50.389Z,2.00
2023-01-07T10:01:39.269Z,1.95
2023-01-07T10:04:32.663Z,2.70
2023-01-07T10:07:25.191Z,2.75
2023-01-07T10:10:18.388Z,2.55
2023-01-07T10:13:09.984Z,2.40
2023-01-07T10:16:23.530Z,2.60
2023-01-07T10:19:03.648Z,2.85
2023-01-07T10:21:49.530Z,2.88
2023-01-07T10:24:27.831Z,2.25
2023-01-07T10:26:59.300Z,2.13
2023-01-07T10:29:39.478Z,2.53
2023-01-07T10:32:19.411Z,2.35
2023-01-07T10:34:53.916Z,2.67
2023-01-07T10:37:37.570Z,2.65
2023-01-07T10:40:25.319Z,2.33
2023-01-07T10:43:04.283Z,2.47
2023-01-07T10:45:34.599Z,2.65
2023-01-07T10:48:31.481Z,2.15
2023-01-07T10:51:36.885Z,2.03
2023-01-07T10:54:26.091Z,2.03
2023-01-07T10:57:00.695Z,2.25
2023-01-07T10:59:28.200Z,2.00
2023-01-07T11:01:58.500Z,2.10
2023-01-07T11:04:26.281Z,1.98
2023-01-07T11:07:04.547Z,2.08
2023-01-07T11:09:39.821Z,2.17
2023-01-07T11:12:27.758Z,2.20
2023-01-07T11:14:58.165Z,2.45
2023-01-07T11:17:59.716Z,2.05
2023-01-07T11:20:48.886Z,2.40
2023-01-07T11:23:19.609Z,2.25
2023-01-07T11:25:47.278Z,2.53
2023-01-07T11:28:26.493Z,2.03
2023-01-07T11:30:59.249Z,2.15
2023-01-07T11:34:02.687Z,1.67
2023-01-07T11:36:39.336Z,1.92
2023-01-07T11:39:21.657Z,1.60
2023-01-07T11:41:55.135Z,1.73
2023-01-07T11:44:22.555Z,1.48
2023-01-07T11:46:50.053Z,1.65
2023-01-07T11:49:26.309Z,1.63
2023-01-07T11:51:53.870Z,1.60
2023-01-07T11:54:26.752Z,1.33
2023-01-07T11:57:10.273Z,1.80
2023-01-07T11:59:37.628Z,1.15
2023-01-07T12:02:23.997Z,1.50
2023-01-07T12:04:51.381Z,1.20
2023-01-07T12:07:18.677Z,1.25
2023-01-07T12:09:46.348Z,1.42
2023-01-07T12:12:39.113Z,1.00
2023-01-07T12:15:29.362Z,1.20
2023-01-07T12:18:11.297Z,0.88
2023-01-07T12:20:54.015Z,1.17
2023-01-07T12:23:30.636Z,1.33
2023-01-07T12:26:07.437Z,1.95
2023-01-07T12:29:12.465Z,1.55
2023-01-07T12:31:53.383Z,1.73
2023-01-07T12:34:50.984Z,2.90
2023-01-07T12:37:24.100Z,2.03
2023-01-07T12:39:58.495Z,1.58
2023-01-07T12:42:31.745Z,1.02
2023-01-07T12:45:05.319Z,1.50
2023-01-07T12:47:39.956Z,1.50
2023-01-07T12:50:13.769Z,0.95
2023-01-07T12:52:51.791Z,1.65
2023-01-07T12:55:33.866Z,1.23
2023-01-07T12:58:33.425Z,1.00
2023-01-07T13:01:13.723Z,1.38
2023-01-07T13:04:13.463Z,1.02
2023-01-07T13:07:22.301Z,1.17
2023-01-07T13:10:02.251Z,0.90
2023-01-07T13:12:46.005Z,1.02
2023-01-07T13:15:23.352Z,1.13
2023-01-07T13:17:53.629Z,1.20
2023-01-07T13:20:56.340Z,0.90
2023-01-07T13:23:36.250Z,1.17
2023-01-07T13:26:06.950Z,0.82
2023-01-07T13:29:15.410Z,0.88
2023-01-07T13:31:54.245Z,1.50
2023-01-07T13:34:47.449Z,1.10
2023-01-07T13:37:36.400Z,1.00
2023-01-07T13:40:22.456Z,1.60
2023-01-07T13:42:59.859Z,2.17
2023-01-07T13:45:35.120Z,1.80
2023-01-07T13:48:18.232Z,1.90
2023-01-07T13:51:00.626Z,1.48
2023-01-07T13:53:32.610Z,1.08
2023-01-07T13:56:17.900Z,1.25
2023-01-07T13:58:49.726Z,1.50
2023-01-07T14:01:27.026Z,1.20
2023-01-07T14:03:58.856Z,1.45
2023-01-07T14:06:39.010Z,1.17
2023-01-07T14:09:13.473Z,1.40
2023-01-07T14:11:54.875Z,1.23
2023-01-07T14:15:07.677Z,4.50
2023-01-07T14:18:01.544Z,2.38
2023-01-07T14:20:52.832Z,3.00
2023-01-07T14:23:35.137Z,2.47
2023-01-07T14:26:08.465Z,3.40
2023-01-07T14:29:13.391Z,2.58
2023-01-07T14:31:40.872Z,2.33
2023-01-07T14:34:25.585Z,1.58
2023-01-07T14:37:02.009Z,2.50
2023-01-07T14:39:34.565Z,1.77
2023-01-07T14:42:20.032Z,2.50
2023-01-07T14:44:48.375Z,1.60
2023-01-07T14:47:41.411Z,2.20
2023-01-07T14:50:45.952Z,2.25
2023-01-07T14:53:16.325Z,1.67
2023-01-07T14:55:51.290Z,2.00
2023-01-07T14:58:47.290Z,1.83
2023-01-07T15:01:27.043Z,1.48
2023-01-07T15:04:32.778Z,1.95
2023-01-07T15:07:01.475Z,1.50
2023-01-07T15:10:12.638Z,2.30
2023-01-07T15:13:01.228Z,2.03
2023-01-07T15:15:50.887Z,2.08
2023-01-07T15:18:18.702Z,2.17
2023-01-07T15:21:19.107Z,2.17
2023-01-07T15:24:14.734Z,1.90
2023-01-07T15:27:09.702Z,2.00
2023-01-07T15:29:54.501Z,1.77
2023-01-07T15:32:36.777Z,1.67
2023-01-07T15:35:37.737Z,1.33
2023-01-07T15:38:20.540Z,1.90
2023-01-07T15:40:48.192Z,1.33
2023-01-07T15:43:23.895Z,1.30
2023-01-07T15:46:03.971Z,1.50
2023-01-07T15:48:31.406Z,1.80
2023-01-07T15:51:00.316Z,1.30
2023-01-07T15:53:29.335Z,1.85
2023-01-07T15:56:06.592Z,2.03
2023-01-07T15:58:46.031Z,2.00
2023-01-07T16:01:24.145Z,2.00
2023-01-07T16:03:54.650Z,2.40
2023-01-07T16:06:31.260Z,2.50
2023-01-07T16:08:59.687Z,2.10
2023-01-07T16:11:29.977Z,2.67
2023-01-07T16:14:03.320Z,2.25
2023-01-07T16:16:32.243Z,2.80
2023-01-07T16:19:03.827Z,3.00
2023-01-07T16:21:44.551Z,2.00
2023-01-07T16:24:16.243Z,2.17
2023-01-07T16:26:48.949Z,2.03
2023-01-07T16:29:26.947Z,2.00
2023-01-07T16:31:55.551Z,1.83
2023-01-07T16:34:25.552Z,2.15
2023-01-07T16:36:58.357Z,2.08
2023-01-07T16:39:48.877Z,2.22
2023-01-07T16:42:23.375Z,2.38
2023-01-07T16:44:50.735Z,2.50
2023-01-07T16:47:26.662Z,2.38
2023-01-07T16:50:29.079Z,3.25
2023-01-07T16:52:57.187Z,2.03
2023-01-07T16:55:49.711Z,2.60
2023-01-07T16:58:35.395Z,2.60
2023-01-07T17:01:04.688Z,4.05
2023-01-07T17:03:51.755Z,4.95
2023-01-07T17:06:25.093Z,3.83
2023-01-07T17:08:53.854Z,3.67
2023-01-07T17:11:38.923Z,3.95
2023-01-07T17:14:32.666Z,2.45
2023-01-07T17:17:00.977Z,2.78
2023-01-07T17:19:36.424Z,2.28
2023-01-07T17:22:04.667Z,2.25
2023-01-07T17:24:31.924Z,2.63
2023-01-07T17:27:02.633Z,2.50
2023-01-07T17:29:39.363Z,2.58
2023-01-07T17:32:06.869Z,3.00
2023-01-07T17:34:34.111Z,2.45
2023-01-07T17:37:01.345Z,2.40
2023-01-07T17:39:28.534Z,2.28
2023-01-07T17:42:15.510Z,3.00
2023-01-07T17:44:42.898Z,2.63
2023-01-07T17:47:11.248Z,2.97
2023-01-07T17:49:38.517Z,2.72
2023-01-07T17:52:05.954Z,3.17
2023-01-07T17:54:33.276Z,2.38
2023-01-07T17:57:00.531Z,2.85
2023-01-07T17:59:30.319Z,2.80
2023-01-07T18:01:59.074Z,2.92
2023-01-07T18:04:26.443Z,2.13
2023-01-07T18:06:53.752Z,2.90
2023-01-07T18:09:21.036Z,2.95
2023-01-07T18:12:07.162Z,2.67
2023-01-07T18:14:34.451Z,2.63
2023-01-07T18:17:01.839Z,3.28
2023-01-07T18:19:29.089Z,2.95
2023-01-07T18:21:56.428Z,3.40
2023-01-07T18:24:23.927Z,3.35
2023-01-07T18:26:51.341Z,3.53
2023-01-07T18:29:18.591Z,3.40
2023-01-07T18:31:45.919Z,2.95
2023-01-07T18:34:15.156Z,3.22
2023-01-07T18:36:42.649Z,3.35
2023-01-07T18:39:17.446Z,3.45
2023-01-07T18:41:48.704Z,2.63
2023-01-07T18:44:17.596Z,2.78
2023-01-07T18:46:44.827Z,2.70
2023-01-07T18:49:12.257Z,2.90
2023-01-07T18:51:39.564Z,2.80
2023-01-07T18:54:06.922Z,3.00
2023-01-07T18:56:34.257Z,3.17
2023-01-07T18:59:01.545Z,4.70
2023-01-07T19:01:29.019Z,3.13
2023-01-07T19:03:57.653Z,4.13
2023-01-07T19:06:25.032Z,3.42
2023-01-07T19:08:52.320Z,2.78
2023-01-07T19:11:19.565Z,2.78
2023-01-07T19:13:46.911Z,2.83
2023-01-07T19:16:14.368Z,2.58
2023-01-07T19:18:41.745Z,3.25
2023-01-07T19:21:12.305Z,2.83
2023-01-07T19:23:39.670Z,2.35
2023-01-07T19:26:09.133Z,2.75
2023-01-07T19:28:36.342Z,2.30
2023-01-07T19:31:07.776Z,2.65
2023-01-07T19:33:35.491Z,3.03
2023-01-07T19:36:06.105Z,3.35
2023-01-07T19:38:33.518Z,3.25
2023-01-07T19:41:00.828Z,2.83
2023-01-07T19:43:28.092Z,3.33
2023-01-07T19:45:56.552Z,3.65
2023-01-07T19:48:24.078Z,2.85
2023-01-07T19:50:59.954Z,2.60
2023-01-07T19:53:29.869Z,3.45
2023-01-07T19:56:06.782Z,3.40
2023-01-07T19:58:34.823Z,3.58
2023-01-07T20:01:07.456Z,4.00
2023-01-07T20:03:35.925Z,3.80
2023-01-07T20:06:05.674Z,3.65
2023-01-07T20:08:33.042Z,2.92
2023-01-07T20:11:00.393Z,3.03
2023-01-07T20:13:29.212Z,3.13
2023-01-07T20:15:56.626Z,2.33
2023-01-07T20:18:23.906Z,2.53
2023-01-07T20:20:58.820Z,1.75
2023-01-07T20:23:27.087Z,1.55
2023-01-07T20:25:54.427Z,1.58
2023-01-07T20:28:21.766Z,1.95
2023-01-07T20:30:49.110Z,2.00
2023-01-07T20:33:17.100Z,1.15
2023-01-07T20:35:46.529Z,1.80
2023-01-07T20:38:14.542Z,1.73
2023-01-07T20:40:42.928Z,2.10
2023-01-07T20:43:10.474Z,2.15
2023-01-07T20:45:38.499Z,2.42
2023-01-07T20:48:05.911Z,2.53
2023-01-07T20:50:35.723Z,1.27
2023-01-07T20:53:03.307Z,1.55
2023-01-07T20:55:30.652Z,1.48
2023-01-07T20:57:58.125Z,1.45
2023-01-07T21:00:25.655Z,1.55
2023-01-07T21:02:52.983Z,1.48
2023-01-07T21:05:21.589Z,1.95
2023-01-07T21:07:49.294Z,1.67
2023-01-07T21:10:18.842Z,1.63
2023-01-07T21:12:46.625Z,1.85
2023-01-07T21:15:16.146Z,1.77
2023-01-07T21:17:43.714Z,2.22
2023-01-07T21:20:14.145Z,1.90
2023-01-07T21:22:42.145Z,1.70
2023-01-07T21:25:11.284Z,1.80
2023-01-07T21:27:39.117Z,2.13
2023-01-07T21:30:07.578Z,2.22
2023-01-07T21:32:35.844Z,2.05
2023-01-07T21:35:03.277Z,2.30
2023-01-07T21:37:30.527Z,2.17
2023-01-07T21:39:58.709Z,2.05
2023-01-07T21:42:26.055Z,1.98
2023-01-07T21:44:53.280Z,1.90
2023-01-07T21:47:20.542Z,2.00
2023-01-07T21:49:49.648Z,1.95
2023-01-07T21:52:20.208Z,3.67
2023-01-07T21:54:47.502Z,3.28
2023-01-07T21:57:14.768Z,2.00
2023-01-07T21:59:42.059Z,1.95
2023-01-07T22:02:11.271Z,1.77
2023-01-07T22:04:41.338Z,2.05
2023-01-07T22:07:18.946Z,1.90
2023-01-07T22:09:46.418Z,1.67
2023-01-07T22:12:14.513Z,1.33
2023-01-07T22:14:41.854Z,1.60
2023-01-07T22:17:10.891Z,1.63
2023-01-07T22:19:38.089Z,1.63
2023-01-07T22:22:07.294Z,2.22
2023-01-07T22:24:34.836Z,2.10
2023-01-07T22:27:02.183Z,1.73
2023-01-07T22:29:32.373Z,1.55
2023-01-07T22:31:59.669Z,1.88
2023-01-07T22:34:27.173Z,1.77
2023-01-07T22:37:03.069Z,1.58
2023-01-07T22:39:36.625Z,1.52
2023-01-07T22:42:15.577Z,1.70
2023-01-07T22:44:47.700Z,2.03
2023-01-07T22:47:17.378Z,1.27
2023-01-07T22:49:45.609Z,1.70
2023-01-07T22:52:13.369Z,1.85
2023-01-07T22:54:40.727Z,1.85
2023-01-07T22:57:10.581Z,1.73
2023-01-07T22:59:38.823Z,1.85
2023-01-07T23:02:06.492Z,1.95
2023-01-07T23:04:35.574Z,1.85
2023-01-07T23:07:09.190Z,1.90
2023-01-07T23:09:36.787Z,1.75
2023-01-07T23:12:05.794Z,1.50
2023-01-07T23:14:33.701Z,1.30
2023-01-07T23:17:01.171Z,1.58
2023-01-07T23:19:30.842Z,1.60
2023-01-07T23:22:08.709Z,1.75
2023-01-07T23:24:37.241Z,1.85
2023-01-07T23:27:05.031Z,1.85
2023-01-07T23:29:32.790Z,1.40
2023-01-07T23:32:00.211Z,1.52
2023-01-07T23:34:27.508Z,1.30
2023-01-07T23:36:54.857Z,1.58
2023-01-07T23:39:22.205Z,1.48
2023-01-07T23:41:49.537Z,1.60
2023-01-07T23:44:17.745Z,1.40
2023-01-07T23:46:45.777Z,1.23
2023-01-07T23:49:13.235Z,1.58
2023-01-07T23:51:41.213Z,1.58
2023-01-07T23:54:08.995Z,1.27
2023-01-07T23:56:36.468Z,1.30
2023-01-07T23:59:03.979Z,1.38
